This is the latest recevied weather packets stored in our database for station/object N5UKZ-WX. If no packets are shown the sender has not sent any weather packets the latest 10 day(s).
| Time | Temp. | Humidity | Pressure | Rain* | Wind** | Luminosity | Snow |
|---|---|---|---|---|---|---|---|
| 1777865809 | 16.11° C | 73% | 1019 hPa | 0 mm | - | - | - |
| 1777864908 | 16.67° C | 73% | 1019 hPa | 0 mm | - | - | - |
| 1777864008 | 17.78° C | 71% | 1019 hPa | 0 mm | - | - | - |
| 1777862208 | 18.33° C | 68% | 1019 hPa | 0 mm | - | - | - |
| 1777861308 | 18.33° C | 67% | 1019 hPa | 0 mm | - | - | - |
| 1777860408 | 19.44° C | 65% | 1019 hPa | 0 mm | - | - | - |
| 1777859507 | 18.33° C | 62% | 1019 hPa | 0 mm | - | - | - |
| 1777858607 | 19.44° C | 61% | 1018.7 hPa | 0 mm | - | - | - |
| 1777857707 | 21.11° C | 59% | 1018.3 hPa | 0 mm | - | - | - |
| 1777856807 | 21.11° C | 56% | 1018.3 hPa | 0 mm | - | - | - |
| 1777855907 | 21.67° C | 54% | 1018 hPa | 0 mm | - | - | - |
| 1777855007 | 22.78° C | 53% | 1018 hPa | 0 mm | - | - | - |
| 1777854106 | 23.33° C | 52% | 1018 hPa | 0 mm | - | - | - |
| 1777853206 | 24.44° C | 49% | 1018 hPa | 0 mm | - | - | - |
| 1777852306 | 24.44° C | 49% | 1018 hPa | 0 mm | - | - | - |
| 1777851406 | 25° C | 48% | 1018 hPa | 0 mm | - | - | - |
| 1777849605 | 26.11° C | 46% | 1018 hPa | 0 mm | - | - | - |
| 1777848705 | 27.22° C | 43% | 1018 hPa | 0 mm | - | - | - |
| 1777847805 | 27.22° C | 42% | 1018 hPa | 0 mm | - | - | - |
| 1777846905 | 27.22° C | 44% | 1018 hPa | 0 mm | - | - | - |
| 1777846004 | 27.22° C | 46% | 1018 hPa | 0 mm | - | - | - |
| 1777845104 | 25.56° C | 48% | 1018 hPa | 0 mm | - | - | - |
| 1777844204 | 23.89° C | 52% | 1018.3 hPa | 0 mm | - | - | - |
| 1777843304 | 25° C | 53% | 1018.7 hPa | 0 mm | - | - | - |
| 1777842404 | 24.44° C | 53% | 1019 hPa | 0 mm | - | - | - |
* Rain latest hour (hover to see other rain measurements)
** Current wind speed in m/s (hover to see current wind gust speed)